Etusivu
METAR-TAF:

METAR-TAF

Lentoasemat :

Grand Marais, Minnesota, Yhdysvallat

Leveyspiiri: 47-50-18N, Pituuspiiri: 090-22-59W, korkeus merenpinnasta: 548 m

Tämänhetkinen sää

Tämä raportti tehtiin 15 minuuttia sitten, kello 11.35 UTC
tyyntä
Lämpötila -10°C
Kosteus 79%
Ilmanpaine 1014 hPa
Näkyvyys: 11.3 km
selkeää

METAR: KCKC 101135Z AUTO 00000KT 7SM CLR M10/M13 A2995 RMK AO2

Aika: 05:50 (11:50 UTC)


TAF: puuttuu

Säähavainnot ja -ennusteet yli 4000 lentoasemalta (METAR- ja TAF-raportit).

Käytössä olevat sääasemat on merkitty karttaan keltaisilla ja punaisilla pisteillä.

Aseta hiiri pisteen päälle nähdäksesi sääaseman nimen.

Klikkaa sitten nähdäksesi säähavainnot ja -ennusteet.

Kartan vaihtaminen: klikkaa mustalla rastilla varustettuja vihreitä pisteitä, niin voit zoomata sisään; viivalla varustettua vihreää pistettä, niin voit zoomata ulos tai vihreitä nuolia, niin pääset viereisille kartoille.


METAR-TAF: